sensor_id;sensor_type;location;lat;lon;timestamp;pressure;altitude;pressure_sealevel;temperature;humidity
41830;BME280;38614;43.472;23.936;2023-03-01T00:02:39;101243.50;;;4.09;nan
41830;BME280;38614;43.472;23.936;2023-03-01T00:05:26;101250.53;;;4.20;nan
41830;BME280;38614;43.472;23.936;2023-03-01T00:08:16;101234.09;;;4.20;nan
41830;BME280;38614;43.472;23.936;2023-03-01T00:11:17;101241.75;;;4.18;nan
41830;BME280;38614;43.472;23.936;2023-03-01T00:14:05;101245.28;;;4.23;nan
41830;BME280;38614;43.472;23.936;2023-03-01T00:16:54;101246.41;;;4.17;nan
41830;BME280;38614;43.472;23.936;2023-03-01T00:19:41;101239.94;;;4.08;nan
41830;BME280;38614;43.472;23.936;2023-03-01T00:22:31;101207.22;;;3.98;nan
41830;BME280;38614;43.472;23.936;2023-03-01T00:25:19;101195.56;;;3.92;nan
41830;BME280;38614;43.472;23.936;2023-03-01T00:28:07;101214.53;;;4.08;nan
41830;BME280;38614;43.472;23.936;2023-03-01T00:30:54;101196.00;;;3.99;nan
41830;BME280;38614;43.472;23.936;2023-03-01T00:33:45;101215.91;;;4.05;nan
41830;BME280;38614;43.472;23.936;2023-03-01T00:36:35;101144.19;;;3.60;nan
41830;BME280;38614;43.472;23.936;2023-03-01T00:39:24;101203.34;;;4.04;nan
41830;BME280;38614;43.472;23.936;2023-03-01T00:42:12;101208.13;;;4.17;nan
41830;BME280;38614;43.472;23.936;2023-03-01T00:45:00;101163.28;;;3.89;nan
41830;BME280;38614;43.472;23.936;2023-03-01T00:47:48;101192.06;;;4.11;nan
41830;BME280;38614;43.472;23.936;2023-03-01T00:50:36;101182.91;;;3.96;nan
41830;BME280;38614;43.472;23.936;2023-03-01T00:53:24;101137.47;;;3.77;nan
41830;BME280;38614;43.472;23.936;2023-03-01T00:56:14;101174.91;;;4.05;nan
41830;BME280;38614;43.472;23.936;2023-03-01T00:59:03;101180.38;;;4.05;nan
41830;BME280;38614;43.472;23.936;2023-03-01T01:01:51;101161.84;;;3.97;nan
41830;BME280;38614;43.472;23.936;2023-03-01T01:04:38;101181.47;;;4.04;nan
41830;BME280;38614;43.472;23.936;2023-03-01T01:07:26;101166.81;;;3.95;nan
41830;BME280;38614;43.472;23.936;2023-03-01T01:10:14;101180.84;;;4.12;nan
41830;BME280;38614;43.472;23.936;2023-03-01T01:13:04;101177.84;;;4.09;nan
41830;BME280;38614;43.472;23.936;2023-03-01T01:15:51;101100.50;;;3.55;nan
41830;BME280;38614;43.472;23.936;2023-03-01T01:18:39;101171.47;;;3.94;nan
41830;BME280;38614;43.472;23.936;2023-03-01T01:21:28;101172.78;;;3.97;nan
41830;BME280;38614;43.472;23.936;2023-03-01T01:24:16;101123.16;;;3.85;nan
41830;BME280;38614;43.472;23.936;2023-03-01T01:27:04;101166.69;;;4.05;nan
41830;BME280;38614;43.472;23.936;2023-03-01T01:29:54;101152.59;;;3.93;nan
41830;BME280;38614;43.472;23.936;2023-03-01T01:32:42;101160.44;;;3.99;nan
41830;BME280;38614;43.472;23.936;2023-03-01T01:35:29;101172.13;;;4.10;nan
41830;BME280;38614;43.472;23.936;2023-03-01T01:38:17;101169.81;;;4.17;nan
41830;BME280;38614;43.472;23.936;2023-03-01T01:41:08;101174.47;;;4.17;nan
41830;BME280;38614;43.472;23.936;2023-03-01T01:49:54;101173.19;;;4.09;nan
41830;BME280;38614;43.472;23.936;2023-03-01T01:52:44;101162.16;;;3.95;nan
41830;BME280;38614;43.472;23.936;2023-03-01T01:55:36;101170.31;;;4.00;nan
41830;BME280;38614;43.472;23.936;2023-03-01T01:58:25;101154.97;;;3.99;nan
41830;BME280;38614;43.472;23.936;2023-03-01T02:01:17;101170.53;;;4.04;nan
41830;BME280;38614;43.472;23.936;2023-03-01T02:04:05;101153.13;;;3.95;nan
41830;BME280;38614;43.472;23.936;2023-03-01T02:07:13;101170.13;;;3.92;nan
41830;BME280;38614;43.472;23.936;2023-03-01T02:10:02;101166.47;;;4.02;nan
41830;BME280;38614;43.472;23.936;2023-03-01T02:12:51;101173.66;;;3.92;nan
41830;BME280;38614;43.472;23.936;2023-03-01T02:15:40;101163.72;;;4.02;nan
41830;BME280;38614;43.472;23.936;2023-03-01T02:18:29;101171.56;;;4.08;nan
41830;BME280;38614;43.472;23.936;2023-03-01T02:21:36;101163.19;;;3.99;nan
41830;BME280;38614;43.472;23.936;2023-03-01T02:27:27;101174.91;;;4.05;nan
41830;BME280;38614;43.472;23.936;2023-03-01T02:30:21;101180.88;;;4.07;nan
41830;BME280;38614;43.472;23.936;2023-03-01T02:33:09;101173.56;;;4.03;nan
41830;BME280;38614;43.472;23.936;2023-03-01T02:35:59;101176.00;;;4.04;nan
41830;BME280;38614;43.472;23.936;2023-03-01T02:38:48;101167.69;;;4.14;nan
41830;BME280;38614;43.472;23.936;2023-03-01T02:41:39;101177.63;;;4.05;nan
41830;BME280;38614;43.472;23.936;2023-03-01T02:44:28;101171.94;;;4.02;nan
41830;BME280;38614;43.472;23.936;2023-03-01T02:47:16;101155.91;;;3.90;nan
41830;BME280;38614;43.472;23.936;2023-03-01T02:50:14;101175.66;;;4.11;nan
41830;BME280;38614;43.472;23.936;2023-03-01T02:53:13;101162.25;;;4.09;nan
41830;BME280;38614;43.472;23.936;2023-03-01T02:56:02;101146.06;;;3.89;nan
41830;BME280;38614;43.472;23.936;2023-03-01T02:58:51;101178.63;;;4.14;nan
41830;BME280;38614;43.472;23.936;2023-03-01T03:01:39;101177.81;;;4.14;nan
41830;BME280;38614;43.472;23.936;2023-03-01T03:04:27;101173.19;;;4.09;nan
41830;BME280;38614;43.472;23.936;2023-03-01T03:07:15;101184.78;;;4.01;nan
41830;BME280;38614;43.472;23.936;2023-03-01T03:10:05;101180.88;;;4.07;nan
41830;BME280;38614;43.472;23.936;2023-03-01T03:12:56;101158.88;;;4.17;nan
41830;BME280;38614;43.472;23.936;2023-03-01T03:15:44;101173.19;;;4.09;nan
41830;BME280;38614;43.472;23.936;2023-03-01T03:18:32;101140.75;;;4.03;nan
41830;BME280;38614;43.472;23.936;2023-03-01T03:21:20;101158.69;;;4.09;nan
41830;BME280;38614;43.472;23.936;2023-03-01T03:24:08;101149.13;;;4.11;nan
41830;BME280;38614;43.472;23.936;2023-03-01T03:26:55;101155.09;;;4.13;nan
41830;BME280;38614;43.472;23.936;2023-03-01T03:29:43;101155.22;;;4.27;nan
41830;BME280;38614;43.472;23.936;2023-03-01T03:32:31;101148.53;;;4.14;nan
41830;BME280;38614;43.472;23.936;2023-03-01T03:35:28;101099.59;;;3.89;nan
41830;BME280;38614;43.472;23.936;2023-03-01T03:38:19;101126.53;;;4.00;nan
41830;BME280;38614;43.472;23.936;2023-03-01T03:41:09;101154.00;;;4.14;nan
41830;BME280;38614;43.472;23.936;2023-03-01T03:43:57;101154.00;;;4.14;nan
41830;BME280;38614;43.472;23.936;2023-03-01T03:46:44;101152.97;;;4.10;nan
41830;BME280;38614;43.472;23.936;2023-03-01T03:49:34;101146.22;;;4.03;nan
41830;BME280;38614;43.472;23.936;2023-03-01T03:52:22;101130.03;;;4.06;nan
41830;BME280;38614;43.472;23.936;2023-03-01T03:55:11;101158.44;;;4.10;nan
41830;BME280;38614;43.472;23.936;2023-03-01T03:58:08;101161.44;;;4.09;nan
41830;BME280;38614;43.472;23.936;2023-03-01T04:00:56;101160.28;;;4.15;nan
41830;BME280;38614;43.472;23.936;2023-03-01T04:04:03;101158.66;;;4.14;nan
41830;BME280;38614;43.472;23.936;2023-03-01T04:06:51;101156.44;;;4.16;nan
41830;BME280;38614;43.472;23.936;2023-03-01T04:09:39;101154.00;;;4.14;nan
41830;BME280;38614;43.472;23.936;2023-03-01T04:12:30;101150.50;;;4.09;nan
41830;BME280;38614;43.472;23.936;2023-03-01T04:15:17;101150.66;;;4.17;nan
41830;BME280;38614;43.472;23.936;2023-03-01T04:18:06;101127.91;;;3.98;nan
41830;BME280;38614;43.472;23.936;2023-03-01T04:20:56;101148.56;;;4.09;nan
41830;BME280;38614;43.472;23.936;2023-03-01T04:23:44;101150.16;;;4.15;nan
41830;BME280;38614;43.472;23.936;2023-03-01T04:26:32;101131.75;;;3.97;nan
41830;BME280;38614;43.472;23.936;2023-03-01T04:29:19;101165.13;;;4.23;nan
41830;BME280;38614;43.472;23.936;2023-03-01T04:32:07;101155.59;;;4.20;nan
41830;BME280;38614;43.472;23.936;2023-03-01T04:34:55;101142.25;;;4.14;nan
41830;BME280;38614;43.472;23.936;2023-03-01T04:37:43;101160.06;;;4.11;nan
41830;BME280;38614;43.472;23.936;2023-03-01T04:40:32;101151.56;;;4.13;nan
41830;BME280;38614;43.472;23.936;2023-03-01T04:43:20;101162.59;;;4.26;nan
41830;BME280;38614;43.472;23.936;2023-03-01T04:46:12;101130.28;;;4.10;nan
41830;BME280;38614;43.472;23.936;2023-03-01T04:49:02;101158.31;;;4.20;nan
41830;BME280;38614;43.472;23.936;2023-03-01T04:51:50;101157.94;;;4.27;nan
41830;BME280;38614;43.472;23.936;2023-03-01T04:54:38;101111.84;;;4.15;nan
41830;BME280;38614;43.472;23.936;2023-03-01T04:57:26;101145.16;;;4.22;nan
41830;BME280;38614;43.472;23.936;2023-03-01T05:00:14;101111.97;;;4.05;nan
41830;BME280;38614;43.472;23.936;2023-03-01T05:03:08;101122.13;;;4.05;nan
41830;BME280;38614;43.472;23.936;2023-03-01T05:05:58;101146.56;;;4.20;nan
41830;BME280;38614;43.472;23.936;2023-03-01T05:08:47;101104.13;;;3.98;nan
41830;BME280;38614;43.472;23.936;2023-03-01T05:11:34;101113.38;;;4.03;nan
41830;BME280;38614;43.472;23.936;2023-03-01T05:14:23;101062.66;;;3.67;nan
41830;BME280;38614;43.472;23.936;2023-03-01T05:17:10;101126.66;;;4.14;nan
41830;BME280;38614;43.472;23.936;2023-03-01T05:19:58;101046.06;;;3.59;nan
41830;BME280;38614;43.472;23.936;2023-03-01T05:22:46;101134.00;;;4.19;nan
41830;BME280;38614;43.472;23.936;2023-03-01T05:25:34;101116.00;;;4.13;nan
41830;BME280;38614;43.472;23.936;2023-03-01T05:28:27;101134.34;;;4.12;nan
41830;BME280;38614;43.472;23.936;2023-03-01T05:31:15;101117.31;;;4.15;nan
41830;BME280;38614;43.472;23.936;2023-03-01T05:34:03;101131.41;;;4.27;nan
41830;BME280;38614;43.472;23.936;2023-03-01T05:36:53;101122.78;;;4.15;nan
41830;BME280;38614;43.472;23.936;2023-03-01T05:39:40;101112.66;;;4.16;nan
41830;BME280;38614;43.472;23.936;2023-03-01T05:42:29;101110.28;;;4.09;nan
41830;BME280;38614;43.472;23.936;2023-03-01T05:45:18;101114.75;;;4.24;nan
41830;BME280;38614;43.472;23.936;2023-03-01T05:48:06;101145.03;;;4.33;nan
41830;BME280;38614;43.472;23.936;2023-03-01T05:50:54;101121.13;;;4.19;nan
41830;BME280;38614;43.472;23.936;2023-03-01T05:53:42;101130.53;;;4.32;nan
41830;BME280;38614;43.472;23.936;2023-03-01T05:56:32;101100.78;;;4.25;nan
41830;BME280;38614;43.472;23.936;2023-03-01T05:59:24;101132.78;;;4.49;nan
41830;BME280;38614;43.472;23.936;2023-03-01T06:02:12;101131.16;;;4.48;nan
41830;BME280;38614;43.472;23.936;2023-03-01T06:05:00;101127.44;;;4.39;nan
41830;BME280;38614;43.472;23.936;2023-03-01T06:07:48;101145.88;;;4.52;nan
41830;BME280;38614;43.472;23.936;2023-03-01T06:10:37;101120.09;;;4.34;nan
41830;BME280;38614;43.472;23.936;2023-03-01T06:13:25;101142.47;;;4.60;nan
41830;BME280;38614;43.472;23.936;2023-03-01T06:16:13;101133.59;;;4.49;nan
41830;BME280;38614;43.472;23.936;2023-03-01T06:19:02;101147.06;;;4.65;nan
41830;BME280;38614;43.472;23.936;2023-03-01T06:21:49;101146.09;;;4.55;nan
41830;BME280;38614;43.472;23.936;2023-03-01T06:24:37;101159.88;;;4.69;nan
41830;BME280;38614;43.472;23.936;2023-03-01T06:27:25;101141.03;;;4.44;nan
41830;BME280;38614;43.472;23.936;2023-03-01T06:30:15;101150.75;;;4.55;nan
41830;BME280;38614;43.472;23.936;2023-03-01T06:33:03;101127.88;;;4.46;nan
41830;BME280;38614;43.472;23.936;2023-03-01T06:35:53;101153.78;;;4.72;nan
41830;BME280;38614;43.472;23.936;2023-03-01T06:38:41;101149.38;;;4.76;nan
41830;BME280;38614;43.472;23.936;2023-03-01T06:41:31;101147.66;;;4.80;nan
41830;BME280;38614;43.472;23.936;2023-03-01T06:44:18;101152.94;;;4.77;nan
41830;BME280;38614;43.472;23.936;2023-03-01T06:47:06;101157.50;;;4.81;nan
41830;BME280;38614;43.472;23.936;2023-03-01T06:49:54;101154.31;;;4.74;nan
41830;BME280;38614;43.472;23.936;2023-03-01T06:52:41;101164.91;;;4.81;nan
41830;BME280;38614;43.472;23.936;2023-03-01T06:55:32;101157.94;;;4.89;nan
41830;BME280;38614;43.472;23.936;2023-03-01T06:58:20;101144.91;;;4.80;nan
41830;BME280;38614;43.472;23.936;2023-03-01T07:01:08;101148.97;;;4.83;nan
41830;BME280;38614;43.472;23.936;2023-03-01T07:03:56;101144.72;;;4.96;nan
41830;BME280;38614;43.472;23.936;2023-03-01T07:06:44;101144.69;;;5.14;nan
41830;BME280;38614;43.472;23.936;2023-03-01T07:09:31;101124.41;;;4.97;nan
41830;BME280;38614;43.472;23.936;2023-03-01T07:12:19;101130.03;;;5.05;nan
41830;BME280;38614;43.472;23.936;2023-03-01T07:15:10;101149.88;;;5.16;nan
41830;BME280;38614;43.472;23.936;2023-03-01T07:17:58;101144.19;;;4.94;nan
41830;BME280;38614;43.472;23.936;2023-03-01T07:20:45;101154.47;;;4.83;nan
41830;BME280;38614;43.472;23.936;2023-03-01T07:23:34;101144.19;;;4.75;nan
41830;BME280;38614;43.472;23.936;2023-03-01T07:26:21;101148.72;;;4.84;nan
41830;BME280;38614;43.472;23.936;2023-03-01T07:29:12;101162.16;;;4.81;nan
41830;BME280;38614;43.472;23.936;2023-03-01T07:32:00;101155.81;;;4.85;nan
41830;BME280;38614;43.472;23.936;2023-03-01T07:34:48;101158.25;;;4.87;nan
41830;BME280;38614;43.472;23.936;2023-03-01T07:37:36;101158.41;;;4.96;nan
41830;BME280;38614;43.472;23.936;2023-03-01T07:40:24;101136.78;;;4.75;nan
41830;BME280;38614;43.472;23.936;2023-03-01T07:43:11;101153.13;;;4.99;nan
41830;BME280;38614;43.472;23.936;2023-03-01T07:46:02;101157.81;;;4.99;nan
41830;BME280;38614;43.472;23.936;2023-03-01T07:48:50;101119.00;;;4.73;nan
41830;BME280;38614;43.472;23.936;2023-03-01T07:51:38;101155.56;;;5.01;nan
41830;BME280;38614;43.472;23.936;2023-03-01T07:54:25;101116.22;;;4.78;nan
41830;BME280;38614;43.472;23.936;2023-03-01T07:57:13;101141.53;;;4.89;nan
41830;BME280;38614;43.472;23.936;2023-03-01T08:00:01;101142.53;;;4.93;nan
41830;BME280;38614;43.472;23.936;2023-03-01T08:03:01;101146.09;;;4.93;nan
41830;BME280;38614;43.472;23.936;2023-03-01T08:05:49;101117.53;;;4.80;nan
41830;BME280;38614;43.472;23.936;2023-03-01T08:08:37;101140.34;;;4.95;nan
41830;BME280;38614;43.472;23.936;2023-03-01T08:11:24;101133.97;;;4.80;nan
41830;BME280;38614;43.472;23.936;2023-03-01T08:14:12;101121.59;;;4.83;nan
41830;BME280;38614;43.472;23.936;2023-03-01T08:17:00;101145.59;;;4.91;nan
41830;BME280;38614;43.472;23.936;2023-03-01T08:19:50;101136.94;;;4.84;nan
41830;BME280;38614;43.472;23.936;2023-03-01T08:22:38;101145.22;;;4.79;nan
41830;BME280;38614;43.472;23.936;2023-03-01T08:25:25;101150.75;;;4.93;nan
41830;BME280;38614;43.472;23.936;2023-03-01T08:28:13;101140.75;;;5.02;nan
41830;BME280;38614;43.472;23.936;2023-03-01T08:31:01;101128.63;;;4.89;nan
41830;BME280;38614;43.472;23.936;2023-03-01T08:33:51;101128.63;;;4.89;nan
41830;BME280;38614;43.472;23.936;2023-03-01T08:36:44;101138.47;;;4.90;nan
41830;BME280;38614;43.472;23.936;2023-03-01T08:39:32;101139.09;;;4.87;nan
41830;BME280;38614;43.472;23.936;2023-03-01T08:42:20;101132.78;;;4.86;nan
41830;BME280;38614;43.472;23.936;2023-03-01T08:45:09;101131.38;;;4.70;nan
41830;BME280;38614;43.472;23.936;2023-03-01T08:47:57;101143.28;;;4.98;nan
41830;BME280;38614;43.472;23.936;2023-03-01T08:50:46;101153.59;;;4.88;nan
41830;BME280;38614;43.472;23.936;2023-03-01T08:53:33;101150.75;;;4.93;nan
41830;BME280;38614;43.472;23.936;2023-03-01T08:56:21;101115.84;;;4.84;nan
41830;BME280;38614;43.472;23.936;2023-03-01T08:59:12;101149.78;;;5.02;nan
41830;BME280;38614;43.472;23.936;2023-03-01T09:02:01;101155.81;;;5.04;nan
41830;BME280;38614;43.472;23.936;2023-03-01T09:04:49;101135.38;;;4.97;nan
41830;BME280;38614;43.472;23.936;2023-03-01T09:07:37;101156.47;;;4.77;nan
41830;BME280;38614;43.472;23.936;2023-03-01T09:10:24;101137.97;;;4.69;nan
41830;BME280;38614;43.472;23.936;2023-03-01T09:13:12;101120.88;;;4.58;nan
41830;BME280;38614;43.472;23.936;2023-03-01T09:16:01;101147.00;;;4.89;nan
41830;BME280;38614;43.472;23.936;2023-03-01T09:18:54;101148.47;;;5.00;nan
41830;BME280;38614;43.472;23.936;2023-03-01T09:21:42;101145.97;;;4.84;nan
41830;BME280;38614;43.472;23.936;2023-03-01T09:24:39;101111.84;;;4.58;nan
41830;BME280;38614;43.472;23.936;2023-03-01T09:27:28;101150.63;;;4.84;nan
41830;BME280;38614;43.472;23.936;2023-03-01T09:30:16;101146.34;;;4.97;nan
41830;BME280;38614;43.472;23.936;2023-03-01T09:33:04;101131.38;;;4.70;nan
41830;BME280;38614;43.472;23.936;2023-03-01T09:35:57;101163.44;;;4.89;nan
41830;BME280;38614;43.472;23.936;2023-03-01T09:38:45;101141.97;;;4.96;nan
41830;BME280;38614;43.472;23.936;2023-03-01T09:41:46;101157.28;;;4.97;nan
41830;BME280;38614;43.472;23.936;2023-03-01T09:44:43;101123.78;;;4.67;nan
41830;BME280;38614;43.472;23.936;2023-03-01T09:47:35;101126.13;;;4.74;nan
41830;BME280;38614;43.472;23.936;2023-03-01T09:50:38;101114.94;;;4.70;nan
41830;BME280;38614;43.472;23.936;2023-03-01T09:53:33;101147.91;;;5.03;nan
41830;BME280;38614;43.472;23.936;2023-03-01T09:56:36;101148.00;;;5.11;nan
41830;BME280;38614;43.472;23.936;2023-03-01T09:59:32;101147.00;;;4.89;nan
41830;BME280;38614;43.472;23.936;2023-03-01T10:02:31;101142.63;;;4.88;nan
41830;BME280;38614;43.472;23.936;2023-03-01T10:09:12;101140.38;;;5.08;nan
41830;BME280;38614;43.472;23.936;2023-03-01T10:12:01;101137.44;;;5.05;nan
41830;BME280;38614;43.472;23.936;2023-03-01T10:15:16;101082.56;;;4.58;nan
41830;BME280;38614;43.472;23.936;2023-03-01T10:18:19;101113.38;;;4.83;nan
41830;BME280;38614;43.472;23.936;2023-03-01T10:21:19;101105.16;;;4.83;nan
41830;BME280;38614;43.472;23.936;2023-03-01T10:24:13;101121.03;;;4.86;nan
41830;BME280;38614;43.472;23.936;2023-03-01T10:27:07;101128.63;;;4.89;nan
41830;BME280;38614;43.472;23.936;2023-03-01T10:32:54;101136.94;;;5.03;nan
41830;BME280;38614;43.472;23.936;2023-03-01T10:35:41;101124.69;;;5.14;nan
41830;BME280;38614;43.472;23.936;2023-03-01T10:38:54;101116.97;;;5.16;nan
41830;BME280;38614;43.472;23.936;2023-03-01T10:44:50;101015.81;;;4.54;nan
41830;BME280;38614;43.472;23.936;2023-03-01T10:47:37;101098.78;;;5.06;nan
41830;BME280;38614;43.472;23.936;2023-03-01T10:50:25;101078.38;;;4.99;nan
41830;BME280;38614;43.472;23.936;2023-03-01T10:56:18;101095.31;;;5.01;nan
41830;BME280;38614;43.472;23.936;2023-03-01T10:59:21;101087.09;;;5.01;nan
41830;BME280;38614;43.472;23.936;2023-03-01T11:02:23;101091.44;;;5.02;nan
41830;BME280;38614;43.472;23.936;2023-03-01T11:05:23;101078.94;;;5.14;nan
41830;BME280;38614;43.472;23.936;2023-03-01T11:08:11;101030.56;;;4.91;nan
41830;BME280;38614;43.472;23.936;2023-03-01T11:11:30;101066.38;;;5.27;nan
41830;BME280;38614;43.472;23.936;2023-03-01T11:14:23;101054.63;;;5.40;nan
41830;BME280;38614;43.472;23.936;2023-03-01T11:17:26;101062.75;;;5.46;nan
41830;BME280;38614;43.472;23.936;2023-03-01T11:20:29;101050.97;;;5.45;nan
41830;BME280;38614;43.472;23.936;2023-03-01T11:23:18;101050.78;;;5.55;nan
41830;BME280;38614;43.472;23.936;2023-03-01T11:26:08;101027.31;;;5.35;nan
41830;BME280;38614;43.472;23.936;2023-03-01T11:29:04;101013.59;;;5.35;nan
41830;BME280;38614;43.472;23.936;2023-03-01T11:31:55;101025.91;;;5.52;nan
41830;BME280;38614;43.472;23.936;2023-03-01T11:34:53;101028.56;;;5.70;nan
41830;BME280;38614;43.472;23.936;2023-03-01T11:43:54;101000.63;;;5.41;nan
41830;BME280;38614;43.472;23.936;2023-03-01T11:49:58;101022.97;;;5.62;nan
41830;BME280;38614;43.472;23.936;2023-03-01T11:53:58;101010.38;;;5.61;nan
41830;BME280;38614;43.472;23.936;2023-03-01T11:56:47;101010.16;;;5.43;nan
41830;BME280;38614;43.472;23.936;2023-03-01T12:02:48;101007.94;;;5.59;nan
41830;BME280;38614;43.472;23.936;2023-03-01T12:06:04;101004.88;;;5.75;nan
41830;BME280;38614;43.472;23.936;2023-03-01T12:18:37;100985.56;;;5.38;nan
41830;BME280;38614;43.472;23.936;2023-03-01T12:39:50;100954.81;;;5.55;nan
41830;BME280;38614;43.472;23.936;2023-03-01T12:49:08;101003.03;;;5.84;nan
41830;BME280;38614;43.472;23.936;2023-03-01T12:52:23;100973.00;;;5.65;nan
41830;BME280;38614;43.472;23.936;2023-03-01T12:55:33;100988.94;;;5.63;nan
41830;BME280;38614;43.472;23.936;2023-03-01T13:02:13;100982.03;;;5.79;nan
41830;BME280;38614;43.472;23.936;2023-03-01T13:08:19;100973.25;;;6.05;nan
41830;BME280;38614;43.472;23.936;2023-03-01T13:11:19;100974.22;;;5.86;nan
41830;BME280;38614;43.472;23.936;2023-03-01T13:17:31;100978.66;;;5.82;nan
41830;BME280;38614;43.472;23.936;2023-03-01T13:20:29;100987.19;;;5.67;nan
41830;BME280;38614;43.472;23.936;2023-03-01T13:26:15;100922.66;;;5.33;nan
41830;BME280;38614;43.472;23.936;2023-03-01T13:29:03;100984.47;;;5.67;nan
41830;BME280;38614;43.472;23.936;2023-03-01T13:34:44;100984.34;;;5.58;nan
41830;BME280;38614;43.472;23.936;2023-03-01T13:37:34;100943.47;;;5.34;nan
41830;BME280;38614;43.472;23.936;2023-03-01T13:43:31;100968.91;;;5.76;nan
41830;BME280;38614;43.472;23.936;2023-03-01T13:46:21;100962.03;;;5.65;nan
41830;BME280;38614;43.472;23.936;2023-03-01T13:49:14;100951.69;;;5.62;nan
41830;BME280;38614;43.472;23.936;2023-03-01T13:52:05;100945.69;;;5.60;nan
41830;BME280;38614;43.472;23.936;2023-03-01T13:54:53;100949.03;;;5.57;nan
41830;BME280;38614;43.472;23.936;2023-03-01T13:57:44;100951.47;;;5.58;nan
41830;BME280;38614;43.472;23.936;2023-03-01T14:00:38;100956.22;;;5.80;nan
41830;BME280;38614;43.472;23.936;2023-03-01T14:03:26;100946.25;;;5.84;nan
41830;BME280;38614;43.472;23.936;2023-03-01T14:06:16;100939.06;;;5.75;nan
41830;BME280;38614;43.472;23.936;2023-03-01T14:09:17;100943.22;;;5.72;nan
41830;BME280;38614;43.472;23.936;2023-03-01T14:12:15;100922.31;;;5.62;nan
41830;BME280;38614;43.472;23.936;2023-03-01T14:15:22;100941.94;;;5.69;nan
41830;BME280;38614;43.472;23.936;2023-03-01T14:18:23;100942.09;;;5.73;nan
41830;BME280;38614;43.472;23.936;2023-03-01T14:21:14;100912.88;;;5.55;nan
41830;BME280;38614;43.472;23.936;2023-03-01T14:24:03;100939.47;;;5.82;nan
41830;BME280;38614;43.472;23.936;2023-03-01T14:26:51;100940.69;;;5.76;nan
41830;BME280;38614;43.472;23.936;2023-03-01T14:29:39;100928.53;;;5.68;nan
41830;BME280;38614;43.472;23.936;2023-03-01T14:32:30;100929.59;;;5.81;nan
41830;BME280;38614;43.472;23.936;2023-03-01T14:35:27;100925.66;;;5.73;nan
41830;BME280;38614;43.472;23.936;2023-03-01T14:41:26;100938.66;;;5.81;nan
41830;BME280;38614;43.472;23.936;2023-03-01T14:44:19;100951.03;;;5.92;nan
41830;BME280;38614;43.472;23.936;2023-03-01T14:47:13;100942.19;;;5.82;nan
41830;BME280;38614;43.472;23.936;2023-03-01T14:50:09;100932.97;;;5.91;nan
41830;BME280;38614;43.472;23.936;2023-03-01T14:53:02;100915.06;;;5.94;nan
41830;BME280;38614;43.472;23.936;2023-03-01T14:56:01;100924.09;;;5.94;nan
41830;BME280;38614;43.472;23.936;2023-03-01T14:58:57;100910.41;;;5.81;nan
41830;BME280;38614;43.472;23.936;2023-03-01T15:01:47;100935.59;;;5.96;nan
41830;BME280;38614;43.472;23.936;2023-03-01T15:04:35;100906.69;;;5.63;nan
41830;BME280;38614;43.472;23.936;2023-03-01T15:07:28;100911.31;;;5.76;nan
41830;BME280;38614;43.472;23.936;2023-03-01T15:10:25;100921.25;;;5.86;nan
41830;BME280;38614;43.472;23.936;2023-03-01T15:13:24;100917.34;;;5.78;nan
41830;BME280;38614;43.472;23.936;2023-03-01T15:16:14;100907.41;;;5.68;nan
41830;BME280;38614;43.472;23.936;2023-03-01T15:19:06;100912.44;;;5.75;nan
41830;BME280;38614;43.472;23.936;2023-03-01T15:21:55;100916.53;;;5.78;nan
41830;BME280;38614;43.472;23.936;2023-03-01T15:24:49;100913.16;;;5.67;nan
41830;BME280;38614;43.472;23.936;2023-03-01T15:27:37;100920.41;;;5.63;nan
41830;BME280;38614;43.472;23.936;2023-03-01T15:30:32;100922.13;;;5.59;nan
41830;BME280;38614;43.472;23.936;2023-03-01T15:36:43;100910.78;;;5.52;nan
41830;BME280;38614;43.472;23.936;2023-03-01T15:48:13;100929.94;;;5.65;nan
41830;BME280;38614;43.472;23.936;2023-03-01T15:51:02;100928.31;;;5.64;nan
41830;BME280;38614;43.472;23.936;2023-03-01T15:53:51;100920.22;;;5.46;nan
41830;BME280;38614;43.472;23.936;2023-03-01T15:56:43;100929.03;;;5.56;nan
41830;BME280;38614;43.472;23.936;2023-03-01T15:59:31;100914.72;;;5.46;nan
41830;BME280;38614;43.472;23.936;2023-03-01T16:02:20;100922.25;;;5.40;nan
41830;BME280;38614;43.472;23.936;2023-03-01T16:05:27;100933.09;;;5.45;nan
41830;BME280;38614;43.472;23.936;2023-03-01T16:08:15;100916.47;;;5.41;nan
41830;BME280;38614;43.472;23.936;2023-03-01T16:11:14;100932.47;;;5.48;nan
41830;BME280;38614;43.472;23.936;2023-03-01T16:14:03;100916.56;;;5.50;nan
41830;BME280;38614;43.472;23.936;2023-03-01T16:16:50;100925.50;;;5.42;nan
41830;BME280;38614;43.472;23.936;2023-03-01T16:19:39;100928.13;;;5.33;nan
41830;BME280;38614;43.472;23.936;2023-03-01T16:22:28;100920.09;;;5.37;nan
41830;BME280;38614;43.472;23.936;2023-03-01T16:25:17;100916.97;;;5.43;nan
41830;BME280;38614;43.472;23.936;2023-03-01T16:28:09;100887.34;;;5.18;nan
41830;BME280;38614;43.472;23.936;2023-03-01T16:30:57;100909.53;;;5.30;nan
41830;BME280;38614;43.472;23.936;2023-03-01T16:33:45;100887.53;;;5.08;nan
41830;BME280;38614;43.472;23.936;2023-03-01T16:36:36;100909.97;;;5.24;nan
41830;BME280;38614;43.472;23.936;2023-03-01T16:39:24;100875.97;;;4.97;nan
41830;BME280;38614;43.472;23.936;2023-03-01T16:42:12;100916.78;;;5.40;nan
41830;BME280;38614;43.472;23.936;2023-03-01T16:45:00;100920.41;;;5.35;nan
41830;BME280;38614;43.472;23.936;2023-03-01T16:47:54;100911.41;;;5.21;nan
41830;BME280;38614;43.472;23.936;2023-03-01T16:50:42;100927.09;;;5.29;nan
41830;BME280;38614;43.472;23.936;2023-03-01T16:53:34;100905.09;;;5.07;nan
41830;BME280;38614;43.472;23.936;2023-03-01T16:56:28;100932.78;;;5.19;nan
41830;BME280;38614;43.472;23.936;2023-03-01T16:59:20;100916.88;;;5.21;nan
41830;BME280;38614;43.472;23.936;2023-03-01T17:02:17;100915.44;;;5.24;nan